Terminal Aerodrome Forecast
Issued by NWS Corpus Christi, TX

Home | Current Version | Previous Version | Text Only | Print | Product List | Glossary On
Versions: 1 2 3 4 5 6 7 8 9 10 11 12 13 14 15
000
FTUS44 KCRP 291300 AAA
TAFVCT
TAF AMD
KVCT 291355Z 2914/3012 20005KT P6SM FEW013 WS010/18040KT
     FM291500 18018G29KT P6SM FEW025
     FM300200 17011KT P6SM BKN013
     FM301000 16005KT 3SM BR BKN011=

USA.gov is the U.S. government's official web portal to all federal, state and local government web resources and services.